createdAt,value
2022-11-28T00:04:26.478Z,81.76
2022-11-28T00:09:30.588Z,80.39
2022-11-28T00:14:35.429Z,80.68
2022-11-28T00:19:41.002Z,81.79
2022-11-28T00:24:45.504Z,81.36
2022-11-28T00:29:49.703Z,81.99
2022-11-28T00:34:55.435Z,81.36
2022-11-28T00:39:59.434Z,81.65
2022-11-28T00:45:03.609Z,81.96
2022-11-28T00:50:12.741Z,82.04
2022-11-28T00:55:16.825Z,82.80
2022-11-28T01:00:21.979Z,82.18
2022-11-28T01:05:28.444Z,81.13
2022-11-28T01:10:32.429Z,80.33
2022-11-28T01:15:37.295Z,79.23
2022-11-28T01:20:42.669Z,78.72
2022-11-28T01:25:49.096Z,78.27
2022-11-28T01:30:53.414Z,77.78
2022-11-28T01:36:00.239Z,79.48
2022-11-28T01:41:05.111Z,79.38
2022-11-28T01:46:11.003Z,80.14
2022-11-28T01:51:17.606Z,78.27
2022-11-28T01:56:24.539Z,79.81
2022-11-28T02:01:29.104Z,79.29
2022-11-28T02:06:35.052Z,80.79
2022-11-28T02:11:58.809Z,81.32
2022-11-28T02:17:16.791Z,82.00
2022-11-28T02:22:25.882Z,82.08
2022-11-28T02:28:13.592Z,82.78
2022-11-28T02:33:27.268Z,83.88
2022-11-28T02:38:44.408Z,83.26
2022-11-28T02:43:58.369Z,83.49
2022-11-28T02:49:07.620Z,84.88
2022-11-28T02:54:14.736Z,84.57
2022-11-28T02:59:45.918Z,83.44
2022-11-28T03:04:58.914Z,83.44
2022-11-28T03:10:14.549Z,83.59
2022-11-28T03:15:22.206Z,83.57
2022-11-28T03:20:38.076Z,83.84
2022-11-28T03:25:53.427Z,83.42
2022-11-28T03:31:03.285Z,83.28
2022-11-28T03:36:14.970Z,83.61
2022-11-28T03:41:25.917Z,83.52
2022-11-28T03:46:37.793Z,83.34
2022-11-28T03:51:48.271Z,83.17
2022-11-28T03:56:58.634Z,83.38
2022-11-28T04:02:08.035Z,83.46
2022-11-28T04:07:24.954Z,83.22
2022-11-28T04:12:38.886Z,83.25
2022-11-28T04:17:51.535Z,83.03
2022-11-28T04:23:02.350Z,82.28
2022-11-28T04:28:12.494Z,82.45
2022-11-28T04:33:20.551Z,82.61
2022-11-28T04:38:29.856Z,82.77
2022-11-28T04:43:39.284Z,83.43
2022-11-28T04:48:44.429Z,82.21
2022-11-28T04:53:55.906Z,82.04
2022-11-28T04:59:01.125Z,81.53
2022-11-28T05:04:05.919Z,80.93
2022-11-28T05:09:12.706Z,82.28
2022-11-28T05:14:19.103Z,82.19
2022-11-28T05:19:23.908Z,82.27
2022-11-28T05:24:32.351Z,82.75
2022-11-28T05:29:36.559Z,82.70
2022-11-28T05:34:41.783Z,82.45
2022-11-28T05:39:49.460Z,82.43
2022-11-28T05:44:54.060Z,82.11
2022-11-28T05:49:58.071Z,82.67
2022-11-28T05:55:03.501Z,82.50
2022-11-28T06:00:09.691Z,82.54
2022-11-28T06:05:40.880Z,82.26
2022-11-28T06:10:43.396Z,82.71
2022-11-28T06:15:47.523Z,82.62
2022-11-28T06:20:52.241Z,82.03
2022-11-28T06:25:57.702Z,82.88
2022-11-28T06:31:02.471Z,81.94
2022-11-28T06:36:08.216Z,82.67
2022-11-28T06:41:17.394Z,82.08
2022-11-28T06:46:22.841Z,81.95
2022-11-28T06:51:26.993Z,83.90
2022-11-28T06:56:32.340Z,83.41
2022-11-28T07:01:36.580Z,84.32
2022-11-28T07:06:41.172Z,84.83
2022-11-28T07:11:47.982Z,83.79
2022-11-28T07:16:51.975Z,83.70
2022-11-28T07:21:56.235Z,83.86
2022-11-28T07:27:04.147Z,83.44
2022-11-28T07:32:08.759Z,83.67
2022-11-28T07:37:13.485Z,82.85
2022-11-28T07:42:20.217Z,83.30
2022-11-28T07:47:40.781Z,83.75
2022-11-28T07:52:44.833Z,83.58
2022-11-28T07:57:50.232Z,82.56
2022-11-28T08:02:54.284Z,81.50
2022-11-28T08:07:58.813Z,80.18
2022-11-28T08:13:04.927Z,79.88
2022-11-28T08:18:09.611Z,79.43
2022-11-28T08:23:14.366Z,78.18
2022-11-28T08:28:19.976Z,75.33
2022-11-28T08:33:24.225Z,75.33
2022-11-28T08:38:28.561Z,75.28
2022-11-28T08:43:37.092Z,73.33
2022-11-28T08:48:42.665Z,71.71
2022-11-28T08:53:49.441Z,71.52
2022-11-28T08:58:55.036Z,70.23
2022-11-28T09:03:59.265Z,69.14
2022-11-28T09:09:06.142Z,70.14
2022-11-28T09:14:11.946Z,69.08
2022-11-28T09:19:17.200Z,67.95
2022-11-28T09:24:21.168Z,68.88
2022-11-28T09:29:26.726Z,70.31
2022-11-28T09:34:31.262Z,70.15
2022-11-28T09:39:44.299Z,72.13
2022-11-28T09:45:00.009Z,70.40
2022-11-28T09:50:10.630Z,71.26
2022-11-28T09:55:21.650Z,71.64
2022-11-28T10:00:36.161Z,72.43
2022-11-28T10:05:46.869Z,73.00
2022-11-28T10:11:01.977Z,75.29
2022-11-28T10:16:16.981Z,75.43
2022-11-28T10:21:30.300Z,75.86
2022-11-28T10:26:37.725Z,76.12
2022-11-28T10:31:47.318Z,76.95
2022-11-28T10:36:59.133Z,75.83
2022-11-28T10:42:17.662Z,75.20
2022-11-28T10:47:36.112Z,74.09
2022-11-28T10:52:46.359Z,74.29
2022-11-28T10:58:03.552Z,75.11
2022-11-28T11:03:15.077Z,75.33
2022-11-28T11:08:25.248Z,76.60
2022-11-28T11:13:30.799Z,75.27
2022-11-28T11:18:38.793Z,74.16
2022-11-28T11:23:43.397Z,72.95
2022-11-28T11:28:50.428Z,71.71
2022-11-28T11:34:04.835Z,72.88
2022-11-28T11:39:20.953Z,72.96
2022-11-28T11:44:34.689Z,71.98
2022-11-28T11:49:43.094Z,71.06
2022-11-28T11:55:06.679Z,69.63
2022-11-28T12:00:19.428Z,69.18
2022-11-28T12:05:46.415Z,70.11
2022-11-28T12:11:05.836Z,69.92
2022-11-28T12:16:32.031Z,70.70
2022-11-28T12:21:46.265Z,70.48
2022-11-28T12:26:54.006Z,71.29
2022-11-28T12:32:19.401Z,72.27
2022-11-28T12:38:10.362Z,73.06
2022-11-28T12:43:37.950Z,73.14
2022-11-28T12:49:18.223Z,74.38
2022-11-28T12:54:55.335Z,76.00
2022-11-28T13:00:09.252Z,75.45
2022-11-28T13:05:38.559Z,76.07
2022-11-28T13:10:52.181Z,76.21
2022-11-28T13:16:22.044Z,75.66
2022-11-28T13:21:38.853Z,76.84
2022-11-28T13:27:02.379Z,75.78
2022-11-28T13:32:25.337Z,76.06
2022-11-28T13:43:18.371Z,78.08
2022-11-28T13:49:20.409Z,78.33
2022-11-28T13:54:55.303Z,77.60
2022-11-28T14:00:23.764Z,77.47
2022-11-28T14:05:33.838Z,77.27
2022-11-28T14:11:15.076Z,78.35
2022-11-28T14:16:40.372Z,78.05
2022-11-28T14:21:59.970Z,78.51
2022-11-28T14:27:06.880Z,78.78
2022-11-28T14:32:30.589Z,77.80
2022-11-28T14:38:00.849Z,78.96
2022-11-28T14:43:28.981Z,78.80
2022-11-28T14:48:39.055Z,80.44
2022-11-28T14:53:54.635Z,81.13
2022-11-28T14:59:06.811Z,81.11
2022-11-28T15:04:46.648Z,82.10
2022-11-28T15:10:07.435Z,82.19
2022-11-28T15:15:17.100Z,81.94
2022-11-28T15:20:30.571Z,82.43
2022-11-28T15:25:37.432Z,83.35
2022-11-28T15:30:46.541Z,84.85
2022-11-28T15:35:58.686Z,83.24
2022-11-28T15:41:02.822Z,82.01
2022-11-28T15:46:08.101Z,81.05
2022-11-28T15:51:28.148Z,81.74
2022-11-28T15:56:34.857Z,81.17
2022-11-28T16:01:39.136Z,82.30
2022-11-28T16:06:50.999Z,82.37
2022-11-28T16:11:57.811Z,81.56
2022-11-28T16:17:04.322Z,82.30
2022-11-28T16:22:11.762Z,82.49
2022-11-28T16:27:30.167Z,82.63
2022-11-28T16:32:38.645Z,83.30
2022-11-28T16:37:44.532Z,82.67
2022-11-28T16:42:53.692Z,83.30
2022-11-28T16:48:07.200Z,82.23
2022-11-28T16:53:44.183Z,81.61
2022-11-28T16:58:48.322Z,81.11
2022-11-28T17:03:55.557Z,80.15
2022-11-28T17:09:01.442Z,80.99
2022-11-28T17:14:11.749Z,81.91
2022-11-28T17:19:18.217Z,80.17
2022-11-28T17:24:26.127Z,79.89
2022-11-28T17:29:30.366Z,81.78
2022-11-28T17:34:35.640Z,80.51
2022-11-28T17:40:01.119Z,80.91
2022-11-28T17:45:06.323Z,81.31
2022-11-28T17:50:11.443Z,81.08
2022-11-28T17:55:18.640Z,81.61
2022-11-28T18:00:24.507Z,80.12
2022-11-28T18:05:30.685Z,82.67
2022-11-28T18:10:38.424Z,84.28
2022-11-28T18:15:43.688Z,83.62
2022-11-28T18:20:48.466Z,84.25
2022-11-28T18:25:56.225Z,83.62
2022-11-28T18:31:02.708Z,83.01
2022-11-28T18:36:12.307Z,81.93
2022-11-28T18:41:18.958Z,82.26
2022-11-28T18:46:23.726Z,83.87
2022-11-28T18:51:30.081Z,83.42
2022-11-28T18:56:36.566Z,82.67
2022-11-28T19:01:42.536Z,83.34
2022-11-28T19:06:48.763Z,83.66
2022-11-28T19:11:56.046Z,83.19
2022-11-28T19:17:02.307Z,83.31
2022-11-28T19:22:07.981Z,84.14
2022-11-28T19:27:14.740Z,84.73
2022-11-28T19:32:19.921Z,84.84
2022-11-28T19:37:24.980Z,84.76
2022-11-28T19:42:31.253Z,84.72
2022-11-28T19:47:36.527Z,86.56
2022-11-28T19:52:40.694Z,86.21
2022-11-28T19:57:48.914Z,85.95
2022-11-28T20:02:53.241Z,85.56
2022-11-28T20:07:58.799Z,84.97
2022-11-28T20:13:05.945Z,85.96
2022-11-28T20:18:10.688Z,85.02
2022-11-28T20:23:14.689Z,84.74
2022-11-28T20:28:21.265Z,83.53
2022-11-28T20:33:26.246Z,83.36
2022-11-28T20:38:30.664Z,83.92
2022-11-28T20:43:38.268Z,83.45
2022-11-28T20:48:42.852Z,84.81
2022-11-28T20:53:47.657Z,85.89
2022-11-28T20:58:53.620Z,85.70
2022-11-28T21:04:00.505Z,86.34
2022-11-28T21:09:04.884Z,85.84
2022-11-28T21:14:10.441Z,86.51
2022-11-28T21:19:14.534Z,86.83
2022-11-28T21:24:19.382Z,87.74
2022-11-28T21:29:27.372Z,87.79
2022-11-28T21:34:31.303Z,88.17
2022-11-28T21:39:35.363Z,88.54
2022-11-28T21:44:46.453Z,88.32
2022-11-28T21:49:50.468Z,88.75
2022-11-28T21:54:55.100Z,90.35
2022-11-28T22:00:02.214Z,91.38
2022-11-28T22:05:08.956Z,90.56
2022-11-28T22:10:13.046Z,89.71
2022-11-28T22:15:19.304Z,89.13
2022-11-28T22:20:23.326Z,88.22
2022-11-28T22:25:27.406Z,88.67
2022-11-28T22:30:32.769Z,87.05
2022-11-28T22:35:36.782Z,86.21
2022-11-28T22:40:40.854Z,86.20
2022-11-28T22:45:55.759Z,85.75
2022-11-28T22:50:59.981Z,85.94
2022-11-28T22:56:05.728Z,84.63
2022-11-28T23:01:14.083Z,84.33
2022-11-28T23:06:19.895Z,83.90
2022-11-28T23:11:32.868Z,83.53
2022-11-28T23:16:40.422Z,83.84
2022-11-28T23:21:47.327Z,84.17
2022-11-28T23:26:52.500Z,84.15
2022-11-28T23:31:58.244Z,83.29
2022-11-28T23:37:03.947Z,82.98
2022-11-28T23:42:08.527Z,83.88
2022-11-28T23:47:15.330Z,83.95
2022-11-28T23:52:19.284Z,82.70
2022-11-28T23:57:23.343Z,83.14
